Time;durP1;ratioP1;P1;durP2;ratioP2;P2;SDS_P1;SDS_P2;PMS_P1;PMS_P2;Temp;Humidity;BMP_temperature;BMP_pressure;BME280_temperature;BME280_humidity;BME280_pressure;Samples;Min_cycle;Max_cycle;Signal;HPM_P1;HPM_P2
2022/01/26 00:06:41;;;;;;;87.90;26.70;;;3.10;97.10;;;;;;4989802;28;20489;-72
2022/01/26 00:09:07;;;;;;;75.10;25.17;;;3.20;97.10;;;;;;4986711;28;20038;-73
2022/01/26 00:11:34;;;;;;;82.75;25.40;;;3.10;97.00;;;;;;4993076;28;20029;-72
2022/01/26 00:14:02;;;;;;;76.53;25.02;;;3.10;97.00;;;;;;4977645;28;20027;-72
2022/01/26 00:16:38;;;;;;;71.32;25.15;;;3.10;97.00;;;;;;4983716;28;20036;-72
2022/01/26 00:19:06;;;;;;;69.70;23.83;;;3.10;97.00;;;;;;4979642;28;20052;-72
2022/01/26 00:21:36;;;;;;;85.82;25.63;;;3.10;97.00;;;;;;4985527;28;20106;-72
2022/01/26 00:24:26;;;;;;;75.15;24.75;;;3.10;97.00;;;;;;4985720;28;20032;-72
2022/01/26 00:29:25;;;;;;;82.43;27.30;;;3.10;96.90;;;;;;4989728;28;20030;-72
2022/01/26 00:40:17;;;;;;;80.85;26.75;;;3.10;96.80;;;;;;4988202;28;20053;-72
2022/01/26 00:42:44;;;;;;;90.60;27.83;;;3.10;96.80;;;;;;4983526;28;20019;-72
2022/01/26 00:45:10;;;;;;;80.40;27.52;;;3.10;96.80;;;;;;4975393;28;20110;-72
2022/01/26 00:47:36;;;;;;;80.95;27.90;;;3.10;96.80;;;;;;4981517;28;20112;-72
2022/01/26 00:50:06;;;;;;;106.53;29.10;;;3.10;96.80;;;;;;4985572;28;20034;-72
2022/01/26 00:52:42;;;;;;;92.13;28.42;;;3.10;96.70;;;;;;4988333;28;20084;-72
2022/01/26 00:55:14;;;;;;;82.30;27.58;;;3.10;96.70;;;;;;4988095;28;20027;-72
2022/01/26 00:57:40;;;;;;;88.43;28.30;;;3.10;96.70;;;;;;4977717;28;20031;-72
2022/01/26 01:00:16;;;;;;;81.55;26.15;;;3.10;96.70;;;;;;4988267;28;20117;-72
2022/01/26 01:02:42;;;;;;;74.70;25.77;;;3.10;96.70;;;;;;4988456;28;20038;-72
2022/01/26 01:05:19;;;;;;;86.60;26.27;;;3.10;96.60;;;;;;4979755;28;20035;-72
2022/01/26 01:07:47;;;;;;;78.07;26.15;;;3.10;96.60;;;;;;4987151;28;20049;-73
2022/01/26 01:10:16;;;;;;;66.18;22.55;;;3.10;96.50;;;;;;4980273;28;20031;-73
2022/01/26 01:12:43;;;;;;;69.13;25.35;;;3.10;96.50;;;;;;4992364;28;20034;-72
2022/01/26 01:15:11;;;;;;;73.72;24.65;;;3.10;96.50;;;;;;4991770;28;20042;-72
2022/01/26 01:17:41;;;;;;;67.78;24.30;;;3.10;96.50;;;;;;4992061;28;20034;-73
2022/01/26 01:20:28;;;;;;;66.68;24.08;;;3.10;96.50;;;;;;4987044;28;20393;-72
2022/01/26 01:30:44;;;;;;;73.60;24.92;;;3.00;96.60;;;;;;4987568;28;20018;-72
2022/01/26 01:33:15;;;;;;;62.95;24.02;;;3.00;96.60;;;;;;4987480;28;20023;-72
2022/01/26 01:35:43;;;;;;;75.28;23.77;;;3.00;96.70;;;;;;4991994;28;20073;-72
2022/01/26 01:38:16;;;;;;;67.55;25.15;;;3.00;96.70;;;;;;4990167;28;20544;-73
2022/01/26 01:40:45;;;;;;;71.70;23.58;;;3.00;96.70;;;;;;4987082;28;20324;-72
2022/01/26 01:43:12;;;;;;;74.70;24.63;;;3.10;96.80;;;;;;4990247;28;20037;-72
2022/01/26 01:45:44;;;;;;;66.03;23.63;;;3.00;96.80;;;;;;4993147;28;20101;-72
2022/01/26 01:48:16;;;;;;;77.53;26.58;;;3.00;96.80;;;;;;4990553;28;20101;-72
2022/01/26 01:50:42;;;;;;;72.10;25.30;;;3.00;96.80;;;;;;4990257;28;20032;-72
2022/01/26 01:53:12;;;;;;;78.22;25.75;;;3.00;96.90;;;;;;4982541;28;20113;-72
2022/01/26 01:55:43;;;;;;;81.88;27.33;;;3.00;96.90;;;;;;4985826;28;20026;-72
2022/01/26 01:58:09;;;;;;;79.93;26.02;;;3.00;97.00;;;;;;4985565;28;20474;-72
2022/01/26 02:00:36;;;;;;;77.38;26.45;;;3.00;97.00;;;;;;4985941;28;20041;-73
2022/01/26 02:03:02;;;;;;;85.90;25.38;;;3.00;97.00;;;;;;4981493;28;20062;-72
2022/01/26 02:05:28;;;;;;;78.10;26.05;;;3.00;97.10;;;;;;4988054;28;20561;-72
2022/01/26 02:07:53;;;;;;;80.88;27.25;;;3.00;97.10;;;;;;4989787;28;20114;-72
2022/01/26 02:10:22;;;;;;;77.65;26.60;;;3.00;97.20;;;;;;4985538;28;20046;-72
2022/01/26 02:12:51;;;;;;;85.60;28.63;;;2.90;97.20;;;;;;4987728;28;20501;-72
2022/01/26 02:15:22;;;;;;;84.50;27.27;;;2.90;97.30;;;;;;4985293;28;20390;-73
2022/01/26 02:52:05;;;;;;;97.05;31.23;;;2.90;97.50;;;;;;4990071;28;20532;-72
2022/01/26 02:59:31;;;;;;;87.57;30.33;;;2.90;97.50;;;;;;4985279;28;20042;-72
2022/01/26 03:02:01;;;;;;;102.15;32.22;;;2.90;97.40;;;;;;4983908;28;20553;-72
2022/01/26 03:04:39;;;;;;;85.97;29.63;;;2.90;97.50;;;;;;4994513;28;20030;-72
2022/01/26 03:07:54;;;;;;;95.15;30.67;;;2.90;97.40;;;;;;4981378;28;20018;-72
2022/01/26 03:10:01;;;;;;;103.95;31.92;;;2.90;97.40;;;;;;4984984;28;20347;-72
2022/01/26 03:12:36;;;;;;;104.20;30.92;;;3.00;97.50;;;;;;4987824;28;20390;-72
2022/01/26 03:15:12;;;;;;;107.38;32.83;;;3.00;97.40;;;;;;4984951;28;20766;-72
2022/01/26 03:18:02;;;;;;;97.05;33.55;;;2.90;97.40;;;;;;4989284;28;20022;-72
2022/01/26 03:20:28;;;;;;;100.32;31.60;;;2.90;97.30;;;;;;4986313;28;20038;-72
2022/01/26 03:28:26;;;;;;;86.40;29.10;;;2.90;97.30;;;;;;4988920;28;20077;-72
2022/01/26 03:31:34;;;;;;;94.40;31.85;;;2.90;97.30;;;;;;4988979;28;20018;-72
2022/01/26 03:33:55;;;;;;;81.78;29.27;;;2.90;97.30;;;;;;4987087;28;20042;-72
2022/01/26 03:36:21;;;;;;;;;;;2.80;97.30;;;;;;4999973;28;20124;-72
2022/01/26 03:38:58;;;;;;;76.85;27.90;;;2.80;97.30;;;;;;4988557;28;19928;-72
2022/01/26 03:44:18;;;;;;;79.82;28.48;;;2.80;97.20;;;;;;4983149;28;20042;-72
2022/01/26 03:46:45;;;;;;;72.82;26.08;;;2.80;97.20;;;;;;4987494;28;20018;-72
2022/01/26 03:49:12;;;;;;;71.55;25.13;;;2.80;97.10;;;;;;4984583;28;20042;-72
2022/01/26 03:51:40;;;;;;;72.43;24.85;;;2.80;97.20;;;;;;4994421;28;20105;-72
2022/01/26 03:54:06;;;;;;;76.28;26.48;;;2.80;97.10;;;;;;4993960;28;20113;-72
2022/01/26 03:56:33;;;;;;;73.70;26.17;;;2.80;97.10;;;;;;4983883;28;20485;-72
2022/01/26 03:58:58;;;;;;;69.55;24.45;;;2.80;97.00;;;;;;4983591;28;20034;-72
2022/01/26 04:01:24;;;;;;;74.22;23.52;;;2.80;96.90;;;;;;4988124;28;20038;-72
2022/01/26 04:03:50;;;;;;;62.10;21.20;;;2.70;96.90;;;;;;4990002;28;20019;-72
2022/01/26 04:06:16;;;;;;;68.43;24.05;;;2.80;96.80;;;;;;4988750;28;20054;-72
2022/01/26 04:08:43;;;;;;;55.50;21.67;;;2.80;96.80;;;;;;4989045;28;20029;-72
2022/01/26 04:13:53;;;;;;;63.97;21.15;;;2.80;96.70;;;;;;4983440;28;20160;-72
2022/01/26 04:16:20;;;;;;;60.22;21.75;;;2.70;96.70;;;;;;4985634;28;20471;-72
2022/01/26 04:18:46;;;;;;;60.38;20.50;;;2.70;96.60;;;;;;4989621;28;20084;-72
2022/01/26 04:21:32;;;;;;;54.78;19.00;;;2.80;96.60;;;;;;4989474;28;20038;-72
2022/01/26 04:24:21;;;;;;;57.08;19.95;;;2.70;96.60;;;;;;4978966;28;20031;-72
2022/01/26 04:26:53;;;;;;;54.03;18.83;;;2.70;96.60;;;;;;4976410;28;20026;-72
2022/01/26 04:29:27;;;;;;;55.10;19.13;;;2.70;96.40;;;;;;4986408;28;20037;-72
2022/01/26 04:31:52;;;;;;;50.97;17.98;;;2.70;96.40;;;;;;4985946;28;20049;-72
2022/01/26 04:34:18;;;;;;;39.92;16.77;;;2.70;96.20;;;;;;4986965;28;20453;-72
2022/01/26 04:37:15;;;;;;;45.00;16.77;;;2.70;96.00;;;;;;5002347;28;20094;-72
2022/01/26 04:39:36;;;;;;;43.00;16.67;;;2.70;96.00;;;;;;4992594;28;20042;-72
2022/01/26 04:42:54;;;;;;;42.10;17.40;;;2.70;95.90;;;;;;4983642;28;20034;-72
2022/01/26 04:44:55;;;;;;;39.05;15.40;;;2.70;95.70;;;;;;4989942;28;20528;-73
2022/01/26 04:47:21;;;;;;;47.80;16.00;;;2.70;95.70;;;;;;4992822;28;20026;-73
2022/01/26 04:49:46;;;;;;;46.67;17.35;;;2.70;95.60;;;;;;4988259;28;20381;-72
2022/01/26 04:52:12;;;;;;;52.17;16.17;;;2.70;95.70;;;;;;4991887;28;20061;-72
2022/01/26 04:54:37;;;;;;;45.00;17.33;;;2.70;95.80;;;;;;4986939;28;20034;-72
2022/01/26 04:57:03;;;;;;;40.55;15.98;;;2.60;95.80;;;;;;4989643;28;20027;-72
2022/01/26 04:59:28;;;;;;;39.72;16.15;;;2.70;95.80;;;;;;4993979;28;20470;-72
2022/01/26 05:01:54;;;;;;;41.55;17.10;;;2.60;95.80;;;;;;4987158;28;20511;-73
2022/01/26 05:04:19;;;;;;;42.03;16.45;;;2.60;95.80;;;;;;4992624;28;20386;-72
2022/01/26 05:06:45;;;;;;;42.20;16.73;;;2.60;95.90;;;;;;4992561;28;20031;-72
2022/01/26 05:09:10;;;;;;;40.80;16.90;;;2.60;95.90;;;;;;4992049;28;20545;-72
2022/01/26 05:11:42;;;;;;;42.83;18.58;;;2.60;95.90;;;;;;4978785;28;20069;-72
2022/01/26 05:14:08;;;;;;;42.72;18.13;;;2.60;96.00;;;;;;4992988;28;20428;-72
2022/01/26 05:16:34;;;;;;;43.10;16.85;;;2.60;96.00;;;;;;4991213;28;20037;-72
2022/01/26 05:19:00;;;;;;;40.67;15.82;;;2.60;96.10;;;;;;4993417;28;20030;-73
2022/01/26 05:21:27;;;;;;;46.00;18.65;;;2.60;96.10;;;;;;4993715;28;20081;-73
2022/01/26 05:23:53;;;;;;;46.17;17.95;;;2.60;96.10;;;;;;4992579;28;20468;-73
2022/01/26 05:26:19;;;;;;;46.47;17.73;;;2.60;96.10;;;;;;4979134;28;20109;-73
2022/01/26 05:28:44;;;;;;;40.75;17.25;;;2.60;96.10;;;;;;4993711;28;20128;-75
2022/01/26 05:31:10;;;;;;;44.55;17.67;;;2.60;96.10;;;;;;4990918;28;20146;-74
2022/01/26 05:33:36;;;;;;;41.25;16.90;;;2.60;96.00;;;;;;4991840;28;20022;-74
2022/01/26 05:36:03;;;;;;;46.25;17.65;;;2.60;96.00;;;;;;4998976;28;20030;-75
2022/01/26 05:38:28;;;;;;;32.38;15.50;;;2.60;95.80;;;;;;4991064;28;20061;-74
2022/01/26 05:40:56;;;;;;;50.75;17.50;;;2.60;95.80;;;;;;4981955;28;20066;-74
2022/01/26 05:43:22;;;;;;;41.03;16.05;;;2.60;95.70;;;;;;4977130;28;20051;-75
2022/01/26 05:45:51;;;;;;;36.60;15.35;;;2.60;95.60;;;;;;4989523;28;20112;-75
2022/01/26 05:48:17;;;;;;;39.17;15.25;;;2.60;95.60;;;;;;4991919;28;20037;-74
2022/01/26 05:50:50;;;;;;;40.70;16.17;;;2.60;95.50;;;;;;4989105;28;20026;-74
2022/01/26 05:53:17;;;;;;;32.13;13.50;;;2.60;95.50;;;;;;4991093;28;20030;-74
2022/01/26 05:55:43;;;;;;;33.65;13.75;;;2.60;95.40;;;;;;4989600;28;20026;-74
2022/01/26 05:58:08;;;;;;;32.20;13.93;;;2.60;95.10;;;;;;4980824;28;20100;-74
2022/01/26 06:00:34;;;;;;;34.92;14.95;;;2.60;95.20;;;;;;4983320;28;20498;-74
2022/01/26 06:02:59;;;;;;;32.90;14.00;;;2.60;95.20;;;;;;4990265;28;20030;-74
2022/01/26 06:05:25;;;;;;;37.20;14.93;;;2.60;95.10;;;;;;4979396;28;20061;-74
2022/01/26 06:07:50;;;;;;;29.90;12.13;;;2.60;95.20;;;;;;4982531;28;20070;-75
2022/01/26 06:10:16;;;;;;;32.95;14.10;;;2.60;95.20;;;;;;4977963;28;20474;-74
2022/01/26 06:12:42;;;;;;;32.88;14.45;;;2.60;95.10;;;;;;4989339;28;20109;-75
2022/01/26 06:15:07;;;;;;;31.67;14.63;;;2.60;95.10;;;;;;4990378;28;20389;-74
2022/01/26 06:17:33;;;;;;;34.67;14.68;;;2.60;95.10;;;;;;4988497;28;20025;-75
2022/01/26 06:19:59;;;;;;;33.28;12.95;;;2.50;95.10;;;;;;4987783;28;20039;-75
2022/01/26 06:22:24;;;;;;;34.58;14.85;;;2.50;95.20;;;;;;4991146;28;20022;-75
2022/01/26 06:24:50;;;;;;;33.95;13.73;;;2.50;95.20;;;;;;4980503;28;20381;-75
2022/01/26 06:27:16;;;;;;;36.08;15.02;;;2.50;95.20;;;;;;4981942;28;20476;-74
2022/01/26 06:29:41;;;;;;;35.90;16.00;;;2.50;95.30;;;;;;4989400;28;20034;-75
2022/01/26 06:32:07;;;;;;;37.25;15.80;;;2.50;95.30;;;;;;4986058;28;20029;-74
2022/01/26 06:34:38;;;;;;;38.22;15.27;;;2.50;95.30;;;;;;4983919;28;20571;-75
2022/01/26 06:37:03;;;;;;;33.65;14.35;;;2.50;95.30;;;;;;4990699;28;20446;-75
2022/01/26 06:39:29;;;;;;;31.88;14.45;;;2.50;95.40;;;;;;4988095;28;20049;-75
2022/01/26 06:41:55;;;;;;;40.13;15.43;;;2.50;95.40;;;;;;4989513;28;20049;-77
2022/01/26 06:44:30;;;;;;;36.42;15.05;;;2.40;95.50;;;;;;4990746;28;20037;-77
2022/01/26 06:47:19;;;;;;;35.47;14.27;;;2.50;95.50;;;;;;4984158;28;20061;-74
2022/01/26 06:49:46;;;;;;;41.35;15.45;;;2.40;95.50;;;;;;4982041;28;20023;-74
2022/01/26 06:52:11;;;;;;;39.75;16.02;;;2.40;95.60;;;;;;4989551;28;20353;-75
2022/01/26 06:54:37;;;;;;;39.45;15.82;;;2.40;95.60;;;;;;4989838;28;20040;-74
2022/01/26 06:57:02;;;;;;;35.88;15.93;;;2.40;95.70;;;;;;4986383;28;20046;-74
2022/01/26 06:59:28;;;;;;;38.47;14.85;;;2.40;95.70;;;;;;4989892;28;20359;-74
2022/01/26 07:01:57;;;;;;;36.50;15.77;;;2.40;95.80;;;;;;4988015;28;20113;-74
2022/01/26 07:04:22;;;;;;;40.53;15.25;;;2.40;95.80;;;;;;4983079;28;20081;-74
2022/01/26 07:06:48;;;;;;;33.97;14.45;;;2.40;95.80;;;;;;4989937;28;20034;-75
2022/01/26 07:09:16;;;;;;;40.42;16.50;;;2.40;95.80;;;;;;4987330;28;20030;-75
2022/01/26 07:11:41;;;;;;;42.70;16.73;;;2.40;95.90;;;;;;4988005;28;20386;-74
2022/01/26 07:14:09;;;;;;;38.70;16.60;;;2.40;95.90;;;;;;4985402;28;20059;-74
2022/01/26 07:22:03;;;;;;;39.00;15.60;;;2.30;96.00;;;;;;4986785;28;20061;-76
2022/01/26 07:24:29;;;;;;;37.70;16.17;;;2.30;96.00;;;;;;4989086;28;20034;-76
2022/01/26 07:26:54;;;;;;;39.30;16.48;;;2.30;96.10;;;;;;4989278;28;20033;-75
2022/01/26 07:29:24;;;;;;;37.05;15.75;;;2.30;96.10;;;;;;4982415;28;20117;-77
2022/01/26 07:31:51;;;;;;;37.85;15.30;;;2.30;96.10;;;;;;4978887;28;20046;-77
2022/01/26 07:34:24;;;;;;;48.42;18.15;;;2.30;96.10;;;;;;4983001;28;20030;-74
2022/01/26 07:36:52;;;;;;;40.15;16.48;;;2.30;96.10;;;;;;4988139;28;20015;-73
2022/01/26 07:39:29;;;;;;;42.25;17.10;;;2.30;96.10;;;;;;4993859;28;20045;-74
2022/01/26 07:41:54;;;;;;;37.08;16.60;;;2.30;96.10;;;;;;4987916;28;20014;-73
2022/01/26 07:44:20;;;;;;;39.35;16.25;;;2.30;96.10;;;;;;4979272;28;20310;-73
2022/01/26 07:46:45;;;;;;;33.75;14.20;;;2.30;96.10;;;;;;4984641;28;20084;-73
2022/01/26 07:49:11;;;;;;;39.95;16.08;;;2.20;96.00;;;;;;4982082;28;20026;-74
2022/01/26 07:51:36;;;;;;;36.60;15.57;;;2.30;96.00;;;;;;4982028;28;20070;-73
2022/01/26 07:54:02;;;;;;;36.95;16.42;;;2.30;96.10;;;;;;4983224;28;20359;-75
2022/01/26 07:56:29;;;;;;;35.00;15.00;;;2.30;96.10;;;;;;4987277;28;20164;-76
2022/01/26 07:58:54;;;;;;;38.35;16.80;;;2.20;96.10;;;;;;4987633;28;20483;-76
2022/01/26 08:01:21;;;;;;;40.33;15.95;;;2.30;96.10;;;;;;4982841;28;20133;-77
2022/01/26 08:03:47;;;;;;;40.13;17.15;;;2.20;96.20;;;;;;4986196;28;20015;-73
2022/01/26 08:06:16;;;;;;;38.38;15.43;;;2.30;96.30;;;;;;4988099;28;20034;-73
2022/01/26 08:08:42;;;;;;;36.60;15.70;;;2.30;96.20;;;;;;4982732;28;20014;-73
2022/01/26 08:11:08;;;;;;;46.42;16.25;;;2.30;96.30;;;;;;4990456;28;20034;-74
2022/01/26 08:13:33;;;;;;;40.30;16.63;;;2.30;96.30;;;;;;4987189;28;20026;-73
2022/01/26 08:15:58;;;;;;;36.22;14.32;;;2.30;96.40;;;;;;4992269;28;20047;-73
2022/01/26 08:18:25;;;;;;;41.95;16.73;;;2.20;96.50;;;;;;4986651;28;20030;-73
2022/01/26 08:20:51;;;;;;;45.90;17.10;;;2.30;96.60;;;;;;4991805;28;20414;-76
2022/01/26 08:23:19;;;;;;;39.75;17.23;;;2.20;96.50;;;;;;4983576;28;20019;-72
2022/01/26 08:25:44;;;;;;;35.42;15.25;;;2.20;96.50;;;;;;4989204;28;20033;-73
2022/01/26 08:28:19;;;;;;;44.25;17.83;;;2.20;96.60;;;;;;4977630;28;20414;-72
2022/01/26 08:30:44;;;;;;;44.55;17.55;;;2.20;96.60;;;;;;4986159;28;20027;-76
2022/01/26 08:33:10;;;;;;;30.83;12.90;;;2.20;96.60;;;;;;4983275;28;20052;-73
2022/01/26 08:35:36;;;;;;;45.92;18.08;;;2.20;96.70;;;;;;4986992;28;20035;-73
2022/01/26 08:38:02;;;;;;;41.45;15.93;;;2.10;96.60;;;;;;4990580;28;20038;-72
2022/01/26 08:40:28;;;;;;;41.50;17.02;;;2.10;96.70;;;;;;4984941;28;20506;-72
2022/01/26 08:42:54;;;;;;;39.75;15.93;;;2.20;96.70;;;;;;4987434;28;20085;-73
2022/01/26 08:45:20;;;;;;;41.83;17.20;;;2.10;96.70;;;;;;4986999;28;20051;-72
2022/01/26 08:47:47;;;;;;;45.13;17.58;;;2.10;96.60;;;;;;4988904;28;20474;-72
2022/01/26 08:50:13;;;;;;;41.35;17.30;;;2.10;96.60;;;;;;4986313;28;20026;-72
2022/01/26 08:52:39;;;;;;;39.92;16.83;;;2.10;96.60;;;;;;4988036;28;20037;-75
2022/01/26 08:55:05;;;;;;;37.28;16.45;;;2.10;96.60;;;;;;4986746;28;20026;-75
2022/01/26 08:57:31;;;;;;;40.83;16.27;;;2.10;96.50;;;;;;4991291;28;20405;-74
2022/01/26 08:59:58;;;;;;;41.20;16.27;;;2.10;96.40;;;;;;4988016;28;20038;-75
2022/01/26 09:02:24;;;;;;;36.47;14.73;;;2.10;96.40;;;;;;4986736;28;20030;-75
2022/01/26 09:04:50;;;;;;;40.95;16.15;;;2.10;96.40;;;;;;4991179;28;20022;-75
2022/01/26 09:07:16;;;;;;;41.20;16.35;;;2.10;96.50;;;;;;4990630;28;20351;-75
2022/01/26 09:09:44;;;;;;;37.63;15.80;;;2.10;96.50;;;;;;4990273;28;20028;-75
2022/01/26 09:12:19;;;;;;;43.15;16.10;;;2.10;96.50;;;;;;4989271;28;20029;-75
2022/01/26 09:14:45;;;;;;;50.58;16.45;;;2.10;96.40;;;;;;4979831;28;20792;-75
2022/01/26 09:17:12;;;;;;;41.20;15.18;;;2.10;96.40;;;;;;4989520;28;20058;-75
2022/01/26 09:19:41;;;;;;;48.40;18.70;;;2.10;96.40;;;;;;4989515;28;20077;-75
2022/01/26 09:22:09;;;;;;;31.02;12.95;;;2.10;96.40;;;;;;4982209;28;20049;-75
2022/01/26 09:24:37;;;;;;;44.30;16.95;;;2.10;96.20;;;;;;4986189;28;20493;-72
2022/01/26 09:27:04;;;;;;;37.83;13.65;;;2.10;96.20;;;;;;4983681;28;20117;-69
2022/01/26 09:29:30;;;;;;;43.85;15.48;;;2.00;96.00;;;;;;4985359;28;20370;-72
2022/01/26 09:31:57;;;;;;;41.45;15.43;;;2.10;96.10;;;;;;4984051;28;20022;-72
2022/01/26 09:34:25;;;;;;;33.97;15.73;;;2.00;96.00;;;;;;4985644;28;20019;-73
2022/01/26 09:36:51;;;;;;;44.15;15.50;;;2.10;96.10;;;;;;4987448;28;20404;-72
2022/01/26 09:39:21;;;;;;;44.45;17.38;;;2.10;96.00;;;;;;4990954;28;20504;-70
2022/01/26 09:41:49;;;;;;;45.95;16.08;;;2.10;95.90;;;;;;4989072;28;20026;-71
2022/01/26 09:44:17;;;;;;;51.35;16.98;;;2.10;95.90;;;;;;4987237;28;20030;-70
2022/01/26 09:46:43;;;;;;;37.97;14.90;;;2.10;95.90;;;;;;4988481;28;20121;-70
2022/01/26 09:49:10;;;;;;;48.78;16.05;;;2.10;95.70;;;;;;4989581;28;20061;-70
2022/01/26 09:51:41;;;;;;;44.00;16.80;;;2.10;95.70;;;;;;4988083;28;20026;-70
2022/01/26 09:54:13;;;;;;;42.03;16.92;;;2.00;95.60;;;;;;4984711;28;20058;-70
2022/01/26 09:56:39;;;;;;;45.45;16.00;;;2.10;95.60;;;;;;4981488;28;20522;-70
2022/01/26 09:59:06;;;;;;;43.15;15.75;;;2.10;95.70;;;;;;4987391;28;20121;-70
2022/01/26 10:01:49;;;;;;;48.00;17.77;;;2.10;95.80;;;;;;4974799;28;20530;-70
2022/01/26 10:04:36;;;;;;;47.28;17.33;;;2.00;95.80;;;;;;4981418;28;20050;-70
2022/01/26 10:07:27;;;;;;;46.95;17.50;;;2.10;95.80;;;;;;4990906;28;20149;-70
2022/01/26 10:15:36;;;;;;;52.72;18.35;;;2.10;95.90;;;;;;4988311;28;20420;-70
2022/01/26 10:18:14;;;;;;;51.45;19.35;;;2.10;95.80;;;;;;4988001;28;20022;-71
2022/01/26 10:20:49;;;;;;;49.00;19.35;;;2.10;95.60;;;;;;4987340;28;20034;-70
2022/01/26 10:23:18;;;;;;;56.88;19.15;;;2.10;95.50;;;;;;4980767;28;20372;-70
2022/01/26 10:26:02;;;;;;;46.60;18.77;;;2.10;95.50;;;;;;4972911;28;20042;-70
2022/01/26 10:28:51;;;;;;;49.47;18.63;;;2.10;95.30;;;;;;4989865;28;20104;-70
2022/01/26 10:31:18;;;;;;;52.50;20.10;;;2.10;95.30;;;;;;4990780;28;20049;-70
2022/01/26 10:34:14;;;;;;;48.92;18.83;;;2.10;95.10;;;;;;4986881;28;20033;-70
2022/01/26 10:36:50;;;;;;;56.10;20.13;;;2.10;95.10;;;;;;4990694;28;20027;-70
2022/01/26 10:39:23;;;;;;;48.58;17.42;;;2.10;95.10;;;;;;4989609;28;20030;-70
2022/01/26 10:41:52;;;;;;;53.55;20.45;;;2.10;94.90;;;;;;4986481;28;20454;-70
2022/01/26 10:44:29;;;;;;;53.88;21.33;;;2.10;94.90;;;;;;4988808;28;20026;-70
2022/01/26 10:47:00;;;;;;;42.58;18.30;;;2.10;94.90;;;;;;4989631;28;20030;-70
2022/01/26 10:52:19;;;;;;;47.20;18.08;;;2.00;94.60;;;;;;4986132;28;20042;-70
2022/01/26 10:54:46;;;;;;;53.38;20.30;;;2.10;94.70;;;;;;4987222;28;20377;-70
2022/01/26 10:57:12;;;;;;;48.55;18.20;;;2.00;94.80;;;;;;4989853;28;20458;-70
2022/01/26 10:59:40;;;;;;;58.30;22.55;;;2.00;94.80;;;;;;4989247;28;20038;-70
2022/01/26 11:02:07;;;;;;;58.45;23.17;;;2.00;95.00;;;;;;4989442;28;20407;-70
2022/01/26 11:04:35;;;;;;;66.82;23.90;;;2.00;95.20;;;;;;4984380;28;20023;-70
2022/01/26 11:07:03;;;;;;;59.35;21.88;;;1.90;95.10;;;;;;4980907;28;20022;-70
2022/01/26 11:09:31;;;;;;;65.13;23.40;;;2.00;95.30;;;;;;4988396;28;20476;-70
2022/01/26 11:12:05;;;;;;;75.20;24.02;;;2.00;95.40;;;;;;4989169;28;20712;-70
2022/01/26 11:15:02;;;;;;;67.32;23.25;;;2.00;95.50;;;;;;4985857;28;20050;-70
2022/01/26 11:17:37;;;;;;;68.47;23.48;;;1.90;95.40;;;;;;4989336;28;20169;-70
2022/01/26 11:20:40;;;;;;;66.68;25.90;;;1.90;95.60;;;;;;4975240;28;20039;-70
2022/01/26 11:23:05;;;;;;;70.55;27.15;;;2.00;95.80;;;;;;4987043;28;20437;-70
2022/01/26 11:25:43;;;;;;;65.90;22.85;;;2.00;95.80;;;;;;4982328;28;20047;-70
2022/01/26 11:28:20;;;;;;;74.75;26.90;;;1.90;95.90;;;;;;4989157;28;20042;-70
2022/01/26 11:30:46;;;;;;;67.95;26.50;;;2.00;96.00;;;;;;4983214;28;20019;-70
2022/01/26 11:33:18;;;;;;;70.10;26.23;;;1.90;96.00;;;;;;4983328;28;20418;-70
2022/01/26 11:35:48;;;;;;;82.90;28.17;;;1.90;96.20;;;;;;4985889;28;20058;-70
2022/01/26 11:46:51;;;;;;;83.53;28.50;;;2.00;96.10;;;;;;4978410;28;20081;-70
2022/01/26 11:49:23;;;;;;;77.55;27.30;;;2.00;96.10;;;;;;4980119;28;20305;-70
2022/01/26 11:51:52;;;;;;;87.43;29.10;;;2.00;96.20;;;;;;4987904;28;20406;-70
2022/01/26 11:54:27;;;;;;;80.05;27.92;;;2.00;96.10;;;;;;4988469;28;20037;-70
2022/01/26 11:57:00;;;;;;;76.70;25.70;;;2.10;96.20;;;;;;4989802;28;20414;-70
2022/01/26 11:59:29;;;;;;;81.30;28.45;;;2.00;96.20;;;;;;4987876;28;20081;-70
2022/01/26 12:02:02;;;;;;;81.93;27.77;;;2.00;96.00;;;;;;4984171;28;20030;-70
2022/01/26 12:04:32;;;;;;;78.90;28.38;;;2.00;96.10;;;;;;4986776;28;20489;-70
2022/01/26 12:07:13;;;;;;;83.10;29.60;;;2.10;96.10;;;;;;4975569;28;20085;-70
2022/01/26 12:09:40;;;;;;;87.65;28.70;;;2.10;96.00;;;;;;4989030;28;20038;-70
2022/01/26 12:12:06;;;;;;;83.25;29.30;;;2.10;96.00;;;;;;4986983;28;20462;-70
2022/01/26 12:14:34;;;;;;;75.65;27.55;;;2.10;96.00;;;;;;4983022;28;20030;-70
2022/01/26 12:17:03;;;;;;;81.00;29.05;;;2.00;96.00;;;;;;4989051;28;20037;-70
2022/01/26 12:19:40;;;;;;;91.30;30.95;;;2.00;95.90;;;;;;4983300;28;20022;-70
2022/01/26 12:36:15;;;;;;;87.50;30.67;;;2.00;96.00;;;;;;4989341;28;20031;-70
2022/01/26 12:38:48;;;;;;;89.13;31.50;;;2.00;96.00;;;;;;4990228;28;20466;-70
2022/01/26 12:41:22;;;;;;;84.95;31.23;;;2.00;96.10;;;;;;4988237;28;20444;-70
2022/01/26 12:43:55;;;;;;;91.18;31.27;;;2.00;96.10;;;;;;4986832;28;20405;-70
2022/01/26 12:46:31;;;;;;;93.18;31.25;;;2.00;96.20;;;;;;4989374;28;20413;-70
2022/01/26 12:49:07;;;;;;;92.65;32.08;;;2.00;96.30;;;;;;4977940;28;20030;-70
2022/01/26 12:51:41;;;;;;;90.22;30.15;;;2.00;96.40;;;;;;4988832;28;20050;-70
2022/01/26 12:54:07;;;;;;;83.30;28.45;;;2.00;96.50;;;;;;4986788;28;20027;-73
2022/01/26 12:56:33;;;;;;;94.00;31.45;;;2.00;96.50;;;;;;4984874;28;20049;-70
2022/01/26 12:59:10;;;;;;;86.22;29.67;;;2.00;96.50;;;;;;4992375;28;20573;-70
2022/01/26 13:01:36;;;;;;;84.00;30.88;;;2.00;96.60;;;;;;4991339;28;20030;-70
2022/01/26 13:04:06;;;;;;;90.88;29.67;;;2.00;96.60;;;;;;4991293;28;20037;-70
2022/01/26 13:06:35;;;;;;;87.80;31.90;;;2.00;96.70;;;;;;4993060;28;20022;-70
2022/01/26 13:09:25;;;;;;;98.18;29.60;;;2.00;96.70;;;;;;4990563;28;20041;-74
2022/01/26 13:11:52;;;;;;;79.43;28.70;;;2.10;96.80;;;;;;4988784;28;20488;-69
2022/01/26 13:14:30;;;;;;;88.50;29.30;;;2.00;96.80;;;;;;4985799;28;20113;-69
2022/01/26 13:17:39;;;;;;;78.65;27.23;;;2.00;96.70;;;;;;4985876;28;20370;-69
2022/01/26 13:28:40;;;;;;;77.00;26.15;;;2.10;96.80;;;;;;4992550;28;20450;-72
2022/01/26 13:30:55;;;;;;;90.32;29.38;;;2.10;96.80;;;;;;4995828;28;20478;-71
2022/01/26 13:39:01;;;;;;;98.40;32.75;;;2.10;96.90;;;;;;4984796;28;20105;-72
2022/01/26 13:41:37;;;;;;;96.40;32.80;;;2.10;97.00;;;;;;4991191;28;20049;-69
2022/01/26 13:55:25;;;;;;;97.97;32.20;;;2.20;96.90;;;;;;4985914;28;20050;-71
2022/01/26 14:00:40;;;;;;;98.93;32.05;;;2.10;97.00;;;;;;4984816;28;20077;-72
2022/01/26 14:03:07;;;;;;;114.38;36.55;;;2.20;97.00;;;;;;4987910;28;20042;-71
2022/01/26 14:05:33;;;;;;;107.88;33.85;;;2.20;97.00;;;;;;4989258;28;20030;-68
2022/01/26 14:07:58;;;;;;;90.13;30.75;;;2.20;97.00;;;;;;4989306;28;20619;-72
2022/01/26 14:10:24;;;;;;;91.85;32.28;;;2.20;97.00;;;;;;4993268;28;20430;-70
2022/01/26 14:12:50;;;;;;;94.60;32.67;;;2.20;97.00;;;;;;4983893;28;20038;-68
2022/01/26 14:15:23;;;;;;;110.00;32.38;;;2.20;97.00;;;;;;4982696;28;20489;-72
2022/01/26 14:20:39;;;;;;;101.80;32.45;;;2.20;96.90;;;;;;4991015;28;20420;-68
2022/01/26 14:23:19;;;;;;;93.70;30.80;;;2.30;97.00;;;;;;4992903;28;20038;-74
2022/01/26 14:25:48;;;;;;;115.70;35.08;;;2.30;97.00;;;;;;4987234;28;20022;-71
2022/01/26 14:28:17;;;;;;;103.90;33.45;;;2.30;97.00;;;;;;4992955;28;20087;-70
2022/01/26 14:31:07;;;;;;;103.75;33.30;;;2.30;97.00;;;;;;4990961;28;20066;-69
2022/01/26 14:33:48;;;;;;;109.20;35.47;;;2.30;97.10;;;;;;4987070;28;20065;-71
2022/01/26 14:50:57;;;;;;;110.47;34.97;;;2.40;97.10;;;;;;4986338;28;20034;-71
2022/01/26 14:54:57;;;;;;;106.72;33.70;;;2.40;97.10;;;;;;4975059;28;20118;-69
2022/01/26 15:00:40;;;;;;;91.32;31.95;;;2.50;97.20;;;;;;4991999;28;20046;-70
2022/01/26 15:33:15;;;;;;;124.80;38.97;;;2.60;97.20;;;;;;4988433;28;20026;-71
2022/01/26 15:50:57;;;;;;;127.35;40.20;;;2.70;97.10;;;;;;4981817;28;20038;-72
2022/01/26 16:18:19;;;;;;;112.10;33.45;;;2.80;97.10;;;;;;4989452;28;20038;-71
2022/01/26 16:20:34;;;;;;;107.18;35.65;;;2.80;97.00;;;;;;4982419;28;20446;-72
2022/01/26 16:37:40;;;;;;;118.75;37.40;;;2.90;96.90;;;;;;4986255;28;20085;-72
2022/01/26 17:11:26;;;;;;;103.25;36.00;;;3.10;96.50;;;;;;4993541;28;20033;-71
2022/01/26 17:25:16;;;;;;;114.22;37.38;;;3.10;96.60;;;;;;4988652;28;20033;-71
2022/01/26 17:34:33;;;;;;;115.03;36.60;;;3.10;96.60;;;;;;4991458;28;20022;-73
2022/01/26 18:06:31;;;;;;;101.80;34.97;;;3.10;96.30;;;;;;4985973;28;20046;-73
2022/01/26 18:16:22;;;;;;;102.13;33.90;;;3.20;96.20;;;;;;4989436;28;20054;-71
2022/01/26 18:31:50;;;;;;;78.47;30.85;;;3.20;96.10;;;;;;4979818;28;20465;-71
2022/01/26 18:32:43;;;;;;;87.15;32.58;;;3.30;95.90;;;;;;4987063;28;20050;-71